Grand Princess — ZCBU5 — position and weather

sailwx.info

Track history (hours):
 
Tides and Currents Weather Stations Pressure Air Temp Water Temp Dewpoint Dewpoint Depression Visibility Wind Speed Wind Dir Waves Ship Positions

Grand Princess

Operator: Princess Cruises

Last reported at 2018-Jul-22 08:00 UTC. Time now 2018-Jul-22 16:23 UTC.
Position N 53°36' W 133°30'.

Length 289.5 m; beam 36 m; draft 8.5 m.

Type: Ship. MMSI: 310327000.

Wind from 320 at 15 knots

Barometer 1027.1 mb
Air temperature 13.3 ° C
Visibility: greater than 10.8 NM
Dewpoint 12.0 ° C
Water temperature 13.1 ° C

Date/timePositionNaut miles runAvg speedWind from/ knotsBaromVisibWave heightAir tempDewpointWater temp
2018-Jul-22 08:00N 53°36' W 133°30'2619.0 320 / 151027.110.8 13.312.013.1
2018-Jul-22 06:38N 54°01' W 133°42'19119.9
2018-Jul-21 21:00N 57°12' W 134°00'76 2.1 180 / 51024.110.8 15.111.610.1
2018-Jul-20 09:00N 58°24' W 134°48'115 4.8 1022.910.8 12.510.012.1
2018-Jul-19 09:00N 56°30' W 134°24'146 6.7 1022.810.8 11.510.510.0
2018-Jul-18 11:10N 54°54' W 131°08'1319.8
2018-Jul-18 10:30N 54°41' W 131°13'919.1
2018-Jul-18 10:00N 54°32' W 131°15'918.7
2018-Jul-18 09:30N 54°24' W 131°08'918.4
2018-Jul-18 09:01N 54°15' W 131°02'918.7
2018-Jul-18 08:30N 54°06' W 131°01'918.3
2018-Jul-18 08:00N 53°57' W 130°59'9746.0
2018-Jul-18 08:00N 53°48' W 130°54'2 3.6 300 / 251018.010.8 14.112.514.8
2018-Jul-18 07:30N 53°48' W 130°57'918.3
2018-Jul-18 07:00N 53°39' W 130°55'1118.7
2018-Jul-18 06:25N 53°28' W 130°52'818.6
2018-Jul-18 06:00N 53°20' W 130°50'918.6
2018-Jul-18 05:30N 53°11' W 130°48'11819.5
2018-Jul-17 23:27N 51°14' W 130°18'921.2
2018-Jul-17 23:00N 51°05' W 130°16'1521.5
2018-Jul-17 22:18N 50°50' W 130°12'6520.6
2018-Jul-17 19:09N 49°47' W 129°46'3120.6
2018-Jul-17 17:39N 49°18' W 129°30'15120.3
2018-Jul-17 10:15N 46°56' W 128°15'520.9
2018-Jul-17 10:00N 46°51' W 128°12'10838.1
2018-Jul-17 10:00N 46°42' W 128°06'1 2.2 350 / 271018.8 5.4 15.514.817.0
2018-Jul-17 09:30N 46°41' W 128°07'1020.8
2018-Jul-17 09:00N 46°32' W 128°02'2820.7
2018-Jul-17 07:40N 46°05' W 127°49'1420.6
2018-Jul-17 06:59N 45°52' W 127°42'1020.2
2018-Jul-17 06:30N 45°43' W 127°38'1020.1
2018-Jul-17 06:00N 45°34' W 127°33'1119.7
2018-Jul-17 05:27N 45°23' W 127°28'918.6
2018-Jul-17 04:57N 45°15' W 127°23'818.7
2018-Jul-17 04:30N 45°07' W 127°19'918.6
2018-Jul-17 04:00N 44°58' W 127°15'918.8
2018-Jul-17 03:30N 44°49' W 127°10'9120.2
2018-Jul-16 23:00N 43°24' W 126°24'629.9 360 / 251019.710.8 17.113.816.0
2018-Jul-16 22:48N 43°27' W 126°30'10318.6
2018-Jul-16 17:15N 41°50' W 125°44'519.1
2018-Jul-16 17:00N 41°45' W 125°42'918.6
2018-Jul-16 16:30N 41°37' W 125°38'918.5
2018-Jul-16 16:00N 41°28' W 125°33'918.0
2018-Jul-16 15:30N 41°20' W 125°29'918.4
2018-Jul-16 15:00N 41°11' W 125°25'918.5
2018-Jul-16 14:30N 41°02' W 125°21'918.8
2018-Jul-16 14:01N 40°53' W 125°17'1018.3
2018-Jul-16 13:26N 40°43' W 125°13'818.7
2018-Jul-16 13:00N 40°36' W 125°09'3219.3
2018-Jul-16 11:21N 40°06' W 124°54'1542.4
2018-Jul-16 11:00N 39°54' W 124°42'7 9.2 010 / 161015.2 5.4 14.113.617.0
2018-Jul-16 10:14N 39°47' W 124°43'418.6
2018-Jul-16 10:00N 39°43' W 124°41'918.7
2018-Jul-16 09:30N 39°35' W 124°36'918.6
2018-Jul-16 09:00N 39°26' W 124°31'918.8
2018-Jul-16 08:30N 39°18' W 124°26'919.0
2018-Jul-16 08:01N 39°09' W 124°21'1019.2
2018-Jul-16 07:31N 39°00' W 124°16'1019.8
2018-Jul-16 07:00N 38°53' W 124°08'1020.0
2018-Jul-16 06:31N 38°45' W 123°60'1019.7
2018-Jul-16 06:01N 38°38' W 123°51'1019.5
2018-Jul-16 05:31N 38°30' W 123°43'1019.2
2018-Jul-16 05:01N 38°23' W 123°36'1019.0
2018-Jul-16 04:31N 38°16' W 123°28'815.6
2018-Jul-16 04:00N 38°10' W 123°21'510.4
2018-Jul-16 03:30N 38°06' W 123°17'510.4
2018-Jul-16 03:00N 38°02' W 123°12'510.7
2018-Jul-16 02:30N 37°58' W 123°08'510.7
2018-Jul-16 02:00N 37°56' W 123°02'510.7
2018-Jul-16 01:30N 37°53' W 122°56'510.8
2018-Jul-16 01:00N 37°50' W 122°50'612.6
2018-Jul-16 00:30N 37°47' W 122°43'611.2
2018-Jul-16 00:00N 37°46' W 122°36'714.9
2018-Jul-15 23:31N 37°49' W 122°28'3 5.8
2018-Jul-15 22:59N 37°48' W 122°24'0 0.0
2018-Jul-15 22:29N 37°48' W 122°24'0 0.0
2018-Jul-15 21:59N 37°48' W 122°24'0 0.0
2018-Jul-15 21:28N 37°48' W 122°24'0 0.0
2018-Jul-15 20:58N 37°48' W 122°24'0 0.0
2018-Jul-15 20:25N 37°48' W 122°24'0 0.0
2018-Jul-15 19:58N 37°48' W 122°24'0 0.0
2018-Jul-15 19:28N 37°48' W 122°24'0 0.0
2018-Jul-15 19:00N 37°48' W 122°24'0 0.0
2018-Jul-15 18:30N 37°48' W 122°24'0 0.0
2018-Jul-15 18:00N 37°48' W 122°24'0 0.0
2018-Jul-15 17:30N 37°48' W 122°24'0 0.0
2018-Jul-15 16:59N 37°48' W 122°24'0 0.0
2018-Jul-15 16:26N 37°48' W 122°24'0 0.0
2018-Jul-15 15:59N 37°48' W 122°24'0 0.0
2018-Jul-15 15:29N 37°48' W 122°24'0 0.0
2018-Jul-15 14:59N 37°48' W 122°24'0 0.0
2018-Jul-15 14:25N 37°48' W 122°24'0 0.1
2018-Jul-15 14:00N 37°48' W 122°24'0 0.5
2018-Jul-15 13:30N 37°49' W 122°24'3 6.3
2018-Jul-15 13:00N 37°49' W 122°28'613.1
2018-Jul-15 12:31N 37°47' W 122°36'611.4
2018-Jul-15 12:01N 37°45' W 122°42'510.3
2018-Jul-15 11:31N 37°47' W 122°48'510.7
2018-Jul-15 11:00N 37°50' W 122°54'6438.0
2018-Jul-15 11:00N 37°54' W 123°00'1 2.9 300 / 81016.3 5.4 13.212.113.0
2018-Jul-15 10:30N 37°53' W 123°00'611.2
2018-Jul-15 10:00N 37°55' W 123°06'611.3
2018-Jul-15 09:30N 37°59' W 123°12'611.6
2018-Jul-15 09:01N 38°03' W 123°17'611.5
2018-Jul-15 08:30N 38°08' W 123°22'917.6
2018-Jul-15 08:00N 38°14' W 123°29'1020.1
2018-Jul-15 07:30N 38°22' W 123°37'1020.2
2018-Jul-15 07:00N 38°30' W 123°45'1020.2
2018-Jul-15 06:30N 38°38' W 123°53'1019.8
2018-Jul-15 06:00N 38°45' W 124°01'1020.0
2018-Jul-15 05:30N 38°54' W 124°08'1020.4
2018-Jul-15 05:00N 39°02' W 124°17'1121.6
2018-Jul-15 04:30N 39°11' W 124°23'1122.1
2018-Jul-15 04:00N 39°21' W 124°29'1121.6
2018-Jul-15 03:30N 39°31' W 124°34'1821.6
2018-Jul-15 02:40N 39°48' W 124°43'321.8
2018-Jul-15 02:30N 39°51' W 124°45'4321.2
2018-Jul-15 00:29N 40°31' W 125°04'1021.3
2018-Jul-15 00:00N 40°42' W 125°04'9022.5
2018-Jul-14 20:00N 42°12' W 125°06'432.5 350 / 291017.510.8 18.114.916.2
2018-Jul-14 19:52N 42°08' W 125°08'821.9
2018-Jul-14 19:30N 42°16' W 125°08'1121.7
2018-Jul-14 19:00N 42°27' W 125°09'1121.7
2018-Jul-14 18:29N 42°38' W 125°10'1021.6
2018-Jul-14 18:00N 42°49' W 125°10'1121.4
2018-Jul-14 17:30N 42°60' W 125°10'1121.1
2018-Jul-14 17:00N 43°10' W 125°11'1021.1
2018-Jul-14 16:30N 43°21' W 125°12'1121.3
2018-Jul-14 16:00N 43°31' W 125°12'1121.7
2018-Jul-14 15:30N 43°42' W 125°12'1121.8
2018-Jul-14 14:59N 43°53' W 125°13'1021.7
2018-Jul-14 14:30N 44°04' W 125°13'2221.4
2018-Jul-14 13:29N 44°26' W 125°14'1021.4
2018-Jul-14 13:00N 44°36' W 125°15'1121.6
2018-Jul-14 12:30N 44°47' W 125°15'1121.4
2018-Jul-14 12:00N 44°57' W 125°15'1121.3
2018-Jul-14 11:30N 45°08' W 125°15'1121.3
2018-Jul-14 11:01N 45°19' W 125°16'1121.3
2018-Jul-14 10:30N 45°29' W 125°16'1121.3
2018-Jul-14 10:00N 45°40' W 125°16'1721.7
2018-Jul-14 09:15N 45°57' W 125°16'521.5
2018-Jul-14 09:01N 46°02' W 125°16'1121.5
2018-Jul-14 08:30N 46°12' W 125°17'1121.4
2018-Jul-14 08:00N 46°23' W 125°17'131163.0
2018-Jul-14 08:00N 46°36' W 125°12'4 8.2 300 / 281020.310.8 14.511.916.0
2018-Jul-14 07:30N 46°34' W 125°17'1121.4
2018-Jul-14 06:59N 46°45' W 125°17'1021.4
2018-Jul-14 06:30N 46°55' W 125°17'611.7
2018-Jul-14 06:00N 47°00' W 125°12'1345.7 300 / 271020.310.8 14.511.716.0
2018-Jul-14 05:43N 47°12' W 125°18'521.3
2018-Jul-14 05:30N 47°17' W 125°18'1221.0
2018-Jul-14 04:56N 47°28' W 125°18'1021.5
2018-Jul-14 04:30N 47°38' W 125°18'1924.6
2018-Jul-14 03:43N 47°57' W 125°18'0 0.4
2018-Jul-14 03:27N 47°57' W 125°18'717.2
2018-Jul-14 03:00N 48°05' W 125°15'917.3
2018-Jul-14 02:30N 48°13' W 125°12'816.6
2018-Jul-14 02:00N 48°21' W 125°09'816.1
2018-Jul-14 01:29N 48°28' W 125°03'816.2
2018-Jul-14 01:00N 48°31' W 124°52'1020.3
2018-Jul-14 00:30N 48°29' W 124°37'1020.1
2018-Jul-14 00:00N 48°25' W 124°23'1019.1
2018-Jul-13 23:30N 48°21' W 124°09'1019.4
2018-Jul-13 23:00N 48°18' W 123°56'1118.5
2018-Jul-13 22:26N 48°16' W 123°40'1012.8
2018-Jul-13 21:38N 48°20' W 123°26'212.6
2018-Jul-13 21:29N 48°22' W 123°25'3 0.4
2018-Jul-13 13:49N 48°25' W 123°24'1 2.0
2018-Jul-13 13:29N 48°24' W 123°24'510.8
2018-Jul-13 12:59N 48°19' W 123°25'813.8
2018-Jul-13 12:25N 48°13' W 123°34'716.4
2018-Jul-13 12:01N 48°13' W 123°44'916.7
2018-Jul-13 11:30N 48°14' W 123°57'917.2
2018-Jul-13 11:00N 48°18' W 124°08'817.2
2018-Jul-13 10:30N 48°21' W 124°20'816.8
2018-Jul-13 10:01N 48°25' W 124°31'816.5
2018-Jul-13 09:31N 48°28' W 124°42'917.4
2018-Jul-13 09:01N 48°29' W 124°55'917.4
2018-Jul-13 08:29N 48°29' W 125°09'816.5
2018-Jul-13 08:01N 48°31' W 125°21'816.5
2018-Jul-13 07:30N 48°36' W 125°31'816.8
2018-Jul-13 07:01N 48°41' W 125°41'917.1
2018-Jul-13 06:31N 48°46' W 125°51'917.2
2018-Jul-13 06:01N 48°52' W 126°01'917.4
2018-Jul-13 05:30N 48°57' W 126°12'917.3
2018-Jul-13 05:00N 49°02' W 126°23'917.6
2018-Jul-13 04:30N 49°07' W 126°34'917.2
2018-Jul-13 04:01N 49°11' W 126°45'917.5
2018-Jul-13 03:31N 49°17' W 126°55'917.7
2018-Jul-13 03:01N 49°22' W 127°06'917.6
2018-Jul-13 02:31N 49°28' W 127°16'1117.6
2018-Jul-13 01:55N 49°35' W 127°29'14216.8
2018-Jul-12 17:30N 51°30' W 129°39'816.6
2018-Jul-12 17:00N 51°37' W 129°43'11318.7
2018-Jul-12 10:59N 53°23' W 130°49'1120.3
2018-Jul-12 10:25N 53°34' W 130°53'820.6
2018-Jul-12 10:00N 53°42' W 130°55'1020.1
2018-Jul-12 09:30N 53°52' W 130°58'1019.9
2018-Jul-12 09:01N 54°02' W 131°00'1019.8
2018-Jul-12 08:30N 54°12' W 131°02'1020.1
2018-Jul-12 08:00N 54°22' W 131°07'  
Track history (hours):
 
Tides and Currents Weather Stations Pressure Air Temp Water Temp Dewpoint Dewpoint Depression Visibility Wind Speed Wind Dir Waves Ship Positions

Grand Princess

Operator: Princess Cruises

Last reported at 2018-Jul-22 08:00 UTC. Time now 2018-Jul-22 16:23 UTC.
Position N 53°36' W 133°30'.

Length 289.5 m; beam 36 m; draft 8.5 m.

Type: Ship. MMSI: 310327000.

Wind from 320 at 15 knots

Barometer 1027.1 mb
Air temperature 13.3 ° C
Visibility: greater than 10.8 NM
Dewpoint 12.0 ° C
Water temperature 13.1 ° C

Date/timePositionNaut miles runAvg speedWind from/ knotsBaromVisibWave heightAir tempDewpointWater temp
2018-Jul-22 08:00N 53°36' W 133°30'2619.0 320 / 151027.110.8 13.312.013.1
2018-Jul-22 06:38N 54°01' W 133°42'19119.9
2018-Jul-21 21:00N 57°12' W 134°00'76 2.1 180 / 51024.110.8 15.111.610.1
2018-Jul-20 09:00N 58°24' W 134°48'115 4.8 1022.910.8 12.510.012.1
2018-Jul-19 09:00N 56°30' W 134°24'146 6.7 1022.810.8 11.510.510.0
2018-Jul-18 11:10N 54°54' W 131°08'1319.8
2018-Jul-18 10:30N 54°41' W 131°13'919.1
2018-Jul-18 10:00N 54°32' W 131°15'918.7
2018-Jul-18 09:30N 54°24' W 131°08'918.4
2018-Jul-18 09:01N 54°15' W 131°02'918.7
2018-Jul-18 08:30N 54°06' W 131°01'918.3
2018-Jul-18 08:00N 53°57' W 130°59'9746.0
2018-Jul-18 08:00N 53°48' W 130°54'2 3.6 300 / 251018.010.8 14.112.514.8
2018-Jul-18 07:30N 53°48' W 130°57'918.3
2018-Jul-18 07:00N 53°39' W 130°55'1118.7
2018-Jul-18 06:25N 53°28' W 130°52'818.6
2018-Jul-18 06:00N 53°20' W 130°50'918.6
2018-Jul-18 05:30N 53°11' W 130°48'11819.5
2018-Jul-17 23:27N 51°14' W 130°18'921.2
2018-Jul-17 23:00N 51°05' W 130°16'1521.5
2018-Jul-17 22:18N 50°50' W 130°12'6520.6
2018-Jul-17 19:09N 49°47' W 129°46'3120.6
2018-Jul-17 17:39N 49°18' W 129°30'15120.3
2018-Jul-17 10:15N 46°56' W 128°15'520.9
2018-Jul-17 10:00N 46°51' W 128°12'10838.1
2018-Jul-17 10:00N 46°42' W 128°06'1 2.2 350 / 271018.8 5.4 15.514.817.0
2018-Jul-17 09:30N 46°41' W 128°07'1020.8
2018-Jul-17 09:00N 46°32' W 128°02'2820.7
2018-Jul-17 07:40N 46°05' W 127°49'1420.6
2018-Jul-17 06:59N 45°52' W 127°42'1020.2
2018-Jul-17 06:30N 45°43' W 127°38'1020.1
2018-Jul-17 06:00N 45°34' W 127°33'1119.7
2018-Jul-17 05:27N 45°23' W 127°28'918.6
2018-Jul-17 04:57N 45°15' W 127°23'818.7
2018-Jul-17 04:30N 45°07' W 127°19'918.6
2018-Jul-17 04:00N 44°58' W 127°15'918.8
2018-Jul-17 03:30N 44°49' W 127°10'9120.2
2018-Jul-16 23:00N 43°24' W 126°24'629.9 360 / 251019.710.8 17.113.816.0
2018-Jul-16 22:48N 43°27' W 126°30'10318.6
2018-Jul-16 17:15N 41°50' W 125°44'519.1
2018-Jul-16 17:00N 41°45' W 125°42'918.6
2018-Jul-16 16:30N 41°37' W 125°38'918.5
2018-Jul-16 16:00N 41°28' W 125°33'918.0
2018-Jul-16 15:30N 41°20' W 125°29'918.4
2018-Jul-16 15:00N 41°11' W 125°25'918.5
2018-Jul-16 14:30N 41°02' W 125°21'918.8
2018-Jul-16 14:01N 40°53' W 125°17'1018.3
2018-Jul-16 13:26N 40°43' W 125°13'818.7
2018-Jul-16 13:00N 40°36' W 125°09'3219.3
2018-Jul-16 11:21N 40°06' W 124°54'1542.4
2018-Jul-16 11:00N 39°54' W 124°42'7 9.2 010 / 161015.2 5.4 14.113.617.0
2018-Jul-16 10:14N 39°47' W 124°43'418.6
2018-Jul-16 10:00N 39°43' W 124°41'918.7
2018-Jul-16 09:30N 39°35' W 124°36'918.6
2018-Jul-16 09:00N 39°26' W 124°31'918.8
2018-Jul-16 08:30N 39°18' W 124°26'919.0
2018-Jul-16 08:01N 39°09' W 124°21'1019.2
2018-Jul-16 07:31N 39°00' W 124°16'1019.8
2018-Jul-16 07:00N 38°53' W 124°08'1020.0
2018-Jul-16 06:31N 38°45' W 123°60'1019.7
2018-Jul-16 06:01N 38°38' W 123°51'1019.5
2018-Jul-16 05:31N 38°30' W 123°43'1019.2
2018-Jul-16 05:01N 38°23' W 123°36'1019.0
2018-Jul-16 04:31N 38°16' W 123°28'815.6
2018-Jul-16 04:00N 38°10' W 123°21'510.4
2018-Jul-16 03:30N 38°06' W 123°17'510.4
2018-Jul-16 03:00N 38°02' W 123°12'510.7
2018-Jul-16 02:30N 37°58' W 123°08'510.7
2018-Jul-16 02:00N 37°56' W 123°02'510.7
2018-Jul-16 01:30N 37°53' W 122°56'510.8
2018-Jul-16 01:00N 37°50' W 122°50'612.6
2018-Jul-16 00:30N 37°47' W 122°43'611.2
2018-Jul-16 00:00N 37°46' W 122°36'714.9
2018-Jul-15 23:31N 37°49' W 122°28'3 5.8
2018-Jul-15 22:59N 37°48' W 122°24'0 0.0
2018-Jul-15 22:29N 37°48' W 122°24'0 0.0
2018-Jul-15 21:59N 37°48' W 122°24'0 0.0
2018-Jul-15 21:28N 37°48' W 122°24'0 0.0
2018-Jul-15 20:58N 37°48' W 122°24'0 0.0
2018-Jul-15 20:25N 37°48' W 122°24'0 0.0
2018-Jul-15 19:58N 37°48' W 122°24'0 0.0
2018-Jul-15 19:28N 37°48' W 122°24'0 0.0
2018-Jul-15 19:00N 37°48' W 122°24'0 0.0
2018-Jul-15 18:30N 37°48' W 122°24'0 0.0
2018-Jul-15 18:00N 37°48' W 122°24'0 0.0
2018-Jul-15 17:30N 37°48' W 122°24'0 0.0
2018-Jul-15 16:59N 37°48' W 122°24'0 0.0
2018-Jul-15 16:26N 37°48' W 122°24'0 0.0
2018-Jul-15 15:59N 37°48' W 122°24'0 0.0
2018-Jul-15 15:29N 37°48' W 122°24'0 0.0
2018-Jul-15 14:59N 37°48' W 122°24'0 0.0
2018-Jul-15 14:25N 37°48' W 122°24'0 0.1
2018-Jul-15 14:00N 37°48' W 122°24'0 0.5
2018-Jul-15 13:30N 37°49' W 122°24'3 6.3
2018-Jul-15 13:00N 37°49' W 122°28'613.1
2018-Jul-15 12:31N 37°47' W 122°36'611.4
2018-Jul-15 12:01N 37°45' W 122°42'510.3
2018-Jul-15 11:31N 37°47' W 122°48'510.7
2018-Jul-15 11:00N 37°50' W 122°54'6438.0
2018-Jul-15 11:00N 37°54' W 123°00'1 2.9 300 / 81016.3 5.4 13.212.113.0
2018-Jul-15 10:30N 37°53' W 123°00'611.2
2018-Jul-15 10:00N 37°55' W 123°06'611.3
2018-Jul-15 09:30N 37°59' W 123°12'611.6
2018-Jul-15 09:01N 38°03' W 123°17'611.5
2018-Jul-15 08:30N 38°08' W 123°22'917.6
2018-Jul-15 08:00N 38°14' W 123°29'1020.1
2018-Jul-15 07:30N 38°22' W 123°37'1020.2
2018-Jul-15 07:00N 38°30' W 123°45'1020.2
2018-Jul-15 06:30N 38°38' W 123°53'1019.8
2018-Jul-15 06:00N 38°45' W 124°01'1020.0
2018-Jul-15 05:30N 38°54' W 124°08'1020.4
2018-Jul-15 05:00N 39°02' W 124°17'1121.6
2018-Jul-15 04:30N 39°11' W 124°23'1122.1
2018-Jul-15 04:00N 39°21' W 124°29'1121.6
2018-Jul-15 03:30N 39°31' W 124°34'1821.6
2018-Jul-15 02:40N 39°48' W 124°43'321.8
2018-Jul-15 02:30N 39°51' W 124°45'4321.2
2018-Jul-15 00:29N 40°31' W 125°04'1021.3
2018-Jul-15 00:00N 40°42' W 125°04'9022.5
2018-Jul-14 20:00N 42°12' W 125°06'432.5 350 / 291017.510.8 18.114.916.2
2018-Jul-14 19:52N 42°08' W 125°08'821.9
2018-Jul-14 19:30N 42°16' W 125°08'1121.7
2018-Jul-14 19:00N 42°27' W 125°09'1121.7
2018-Jul-14 18:29N 42°38' W 125°10'1021.6
2018-Jul-14 18:00N 42°49' W 125°10'1121.4
2018-Jul-14 17:30N 42°60' W 125°10'1121.1
2018-Jul-14 17:00N 43°10' W 125°11'1021.1
2018-Jul-14 16:30N 43°21' W 125°12'1121.3
2018-Jul-14 16:00N 43°31' W 125°12'1121.7
2018-Jul-14 15:30N 43°42' W 125°12'1121.8
2018-Jul-14 14:59N 43°53' W 125°13'1021.7
2018-Jul-14 14:30N 44°04' W 125°13'2221.4
2018-Jul-14 13:29N 44°26' W 125°14'1021.4
2018-Jul-14 13:00N 44°36' W 125°15'1121.6
2018-Jul-14 12:30N 44°47' W 125°15'1121.4
2018-Jul-14 12:00N 44°57' W 125°15'1121.3
2018-Jul-14 11:30N 45°08' W 125°15'1121.3
2018-Jul-14 11:01N 45°19' W 125°16'1121.3
2018-Jul-14 10:30N 45°29' W 125°16'1121.3
2018-Jul-14 10:00N 45°40' W 125°16'1721.7
2018-Jul-14 09:15N 45°57' W 125°16'521.5
2018-Jul-14 09:01N 46°02' W 125°16'1121.5
2018-Jul-14 08:30N 46°12' W 125°17'1121.4
2018-Jul-14 08:00N 46°23' W 125°17'131163.0
2018-Jul-14 08:00N 46°36' W 125°12'4 8.2 300 / 281020.310.8 14.511.916.0
2018-Jul-14 07:30N 46°34' W 125°17'1121.4
2018-Jul-14 06:59N 46°45' W 125°17'1021.4
2018-Jul-14 06:30N 46°55' W 125°17'611.7
2018-Jul-14 06:00N 47°00' W 125°12'1345.7 300 / 271020.310.8 14.511.716.0
2018-Jul-14 05:43N 47°12' W 125°18'521.3
2018-Jul-14 05:30N 47°17' W 125°18'1221.0
2018-Jul-14 04:56N 47°28' W 125°18'1021.5
2018-Jul-14 04:30N 47°38' W 125°18'1924.6
2018-Jul-14 03:43N 47°57' W 125°18'0 0.4
2018-Jul-14 03:27N 47°57' W 125°18'717.2
2018-Jul-14 03:00N 48°05' W 125°15'917.3
2018-Jul-14 02:30N 48°13' W 125°12'816.6
2018-Jul-14 02:00N 48°21' W 125°09'816.1
2018-Jul-14 01:29N 48°28' W 125°03'816.2
2018-Jul-14 01:00N 48°31' W 124°52'1020.3
2018-Jul-14 00:30N 48°29' W 124°37'1020.1
2018-Jul-14 00:00N 48°25' W 124°23'1019.1
2018-Jul-13 23:30N 48°21' W 124°09'1019.4
2018-Jul-13 23:00N 48°18' W 123°56'1118.5
2018-Jul-13 22:26N 48°16' W 123°40'1012.8
2018-Jul-13 21:38N 48°20' W 123°26'212.6
2018-Jul-13 21:29N 48°22' W 123°25'3 0.4
2018-Jul-13 13:49N 48°25' W 123°24'1 2.0
2018-Jul-13 13:29N 48°24' W 123°24'510.8
2018-Jul-13 12:59N 48°19' W 123°25'813.8
2018-Jul-13 12:25N 48°13' W 123°34'716.4
2018-Jul-13 12:01N 48°13' W 123°44'916.7
2018-Jul-13 11:30N 48°14' W 123°57'917.2
2018-Jul-13 11:00N 48°18' W 124°08'817.2
2018-Jul-13 10:30N 48°21' W 124°20'816.8
2018-Jul-13 10:01N 48°25' W 124°31'816.5
2018-Jul-13 09:31N 48°28' W 124°42'917.4
2018-Jul-13 09:01N 48°29' W 124°55'917.4
2018-Jul-13 08:29N 48°29' W 125°09'816.5
2018-Jul-13 08:01N 48°31' W 125°21'816.5
2018-Jul-13 07:30N 48°36' W 125°31'816.8
2018-Jul-13 07:01N 48°41' W 125°41'917.1
2018-Jul-13 06:31N 48°46' W 125°51'917.2
2018-Jul-13 06:01N 48°52' W 126°01'917.4
2018-Jul-13 05:30N 48°57' W 126°12'917.3
2018-Jul-13 05:00N 49°02' W 126°23'917.6
2018-Jul-13 04:30N 49°07' W 126°34'917.2
2018-Jul-13 04:01N 49°11' W 126°45'917.5
2018-Jul-13 03:31N 49°17' W 126°55'917.7
2018-Jul-13 03:01N 49°22' W 127°06'917.6
2018-Jul-13 02:31N 49°28' W 127°16'1117.6
2018-Jul-13 01:55N 49°35' W 127°29'14216.8
2018-Jul-12 17:30N 51°30' W 129°39'816.6
2018-Jul-12 17:00N 51°37' W 129°43'11318.7
2018-Jul-12 10:59N 53°23' W 130°49'1120.3
2018-Jul-12 10:25N 53°34' W 130°53'820.6
2018-Jul-12 10:00N 53°42' W 130°55'1020.1
2018-Jul-12 09:30N 53°52' W 130°58'1019.9
2018-Jul-12 09:01N 54°02' W 131°00'1019.8
2018-Jul-12 08:30N 54°12' W 131°02'1020.1
2018-Jul-12 08:00N 54°22' W 131°07'  

Dump ship's entire track history